sensor_id;sensor_type;location;lat;lon;timestamp;pressure;altitude;pressure_sealevel;temperature;humidity
42859;BME280;28505;56.970;40.998;2023-12-28T00:03:42;98870.59;;;-6.04;100.00
42859;BME280;28505;56.970;40.998;2023-12-28T00:09:04;98886.13;;;-5.78;100.00
42859;BME280;28505;56.970;40.998;2023-12-28T00:14:32;98889.16;;;-5.81;100.00
42859;BME280;28505;56.970;40.998;2023-12-28T00:19:55;98897.03;;;-5.81;100.00
42859;BME280;28505;56.970;40.998;2023-12-28T00:25:17;98899.25;;;-5.78;100.00
42859;BME280;28505;56.970;40.998;2023-12-28T00:30:40;98905.28;;;-5.77;100.00
42859;BME280;28505;56.970;40.998;2023-12-28T00:36:02;98915.56;;;-5.76;100.00
42859;BME280;28505;56.970;40.998;2023-12-28T00:41:24;98919.41;;;-6.03;100.00
42859;BME280;28505;56.970;40.998;2023-12-28T00:46:47;98925.44;;;-5.96;100.00
42859;BME280;28505;56.970;40.998;2023-12-28T00:52:09;98933.09;;;-5.95;100.00
42859;BME280;28505;56.970;40.998;2023-12-28T00:57:31;98941.78;;;-5.94;100.00
42859;BME280;28505;56.970;40.998;2023-12-28T01:02:54;98948.97;;;-6.15;100.00
42859;BME280;28505;56.970;40.998;2023-12-28T01:08:17;98959.78;;;-5.98;100.00
42859;BME280;28505;56.970;40.998;2023-12-28T01:13:39;98956.50;;;-5.93;100.00
42859;BME280;28505;56.970;40.998;2023-12-28T01:19:03;98965.59;;;-5.96;100.00
42859;BME280;28505;56.970;40.998;2023-12-28T01:24:25;98961.47;;;-6.17;100.00
42859;BME280;28505;56.970;40.998;2023-12-28T01:29:49;98966.16;;;-6.32;100.00
42859;BME280;28505;56.970;40.998;2023-12-28T01:35:11;98973.22;;;-6.26;100.00
42859;BME280;28505;56.970;40.998;2023-12-28T01:40:33;98983.66;;;-6.19;100.00
42859;BME280;28505;56.970;40.998;2023-12-28T01:45:55;98986.75;;;-6.29;100.00
42859;BME280;28505;56.970;40.998;2023-12-28T01:51:19;98998.59;;;-6.20;100.00
42859;BME280;28505;56.970;40.998;2023-12-28T01:56:44;98996.38;;;-6.16;100.00
42859;BME280;28505;56.970;40.998;2023-12-28T02:02:07;98997.50;;;-6.44;100.00
42859;BME280;28505;56.970;40.998;2023-12-28T02:07:29;99007.31;;;-6.26;100.00
42859;BME280;28505;56.970;40.998;2023-12-28T02:12:53;99010.13;;;-6.21;100.00
42859;BME280;28505;56.970;40.998;2023-12-28T02:18:21;99012.34;;;-6.18;100.00
42859;BME280;28505;56.970;40.998;2023-12-28T02:23:51;99014.53;;;-6.15;100.00
42859;BME280;28505;56.970;40.998;2023-12-28T02:29:13;99033.75;;;-6.27;100.00
42859;BME280;28505;56.970;40.998;2023-12-28T02:34:37;99037.63;;;-6.43;100.00
42859;BME280;28505;56.970;40.998;2023-12-28T02:40:06;99037.75;;;-6.25;100.00
42859;BME280;28505;56.970;40.998;2023-12-28T02:45:29;99042.63;;;-6.28;100.00
42859;BME280;28505;56.970;40.998;2023-12-28T02:50:52;99044.25;;;-6.27;100.00
42859;BME280;28505;56.970;40.998;2023-12-28T02:56:14;99050.72;;;-6.30;100.00
42859;BME280;28505;56.970;40.998;2023-12-28T03:01:37;99050.38;;;-6.67;100.00
42859;BME280;28505;56.970;40.998;2023-12-28T03:06:59;99051.56;;;-6.49;100.00
42859;BME280;28505;56.970;40.998;2023-12-28T03:12:21;99063.84;;;-6.43;100.00
42859;BME280;28505;56.970;40.998;2023-12-28T03:17:44;99061.00;;;-6.42;100.00
42859;BME280;28505;56.970;40.998;2023-12-28T03:23:06;99061.63;;;-6.46;100.00
42859;BME280;28505;56.970;40.998;2023-12-28T03:28:30;99081.59;;;-6.45;100.00
42859;BME280;28505;56.970;40.998;2023-12-28T03:33:52;99084.59;;;-6.28;100.00
42859;BME280;28505;56.970;40.998;2023-12-28T03:39:15;99110.81;;;-6.35;100.00
42859;BME280;28505;56.970;40.998;2023-12-28T03:44:39;99099.72;;;-6.24;100.00
42859;BME280;28505;56.970;40.998;2023-12-28T03:50:01;99100.56;;;-6.43;100.00
42859;BME280;28505;56.970;40.998;2023-12-28T03:55:24;99102.13;;;-6.29;100.00
42859;BME280;28505;56.970;40.998;2023-12-28T04:00:46;99103.78;;;-6.48;100.00
42859;BME280;28505;56.970;40.998;2023-12-28T04:06:09;99100.59;;;-6.96;100.00
42859;BME280;28505;56.970;40.998;2023-12-28T04:11:31;99101.00;;;-6.73;100.00
42859;BME280;28505;56.970;40.998;2023-12-28T04:16:54;99102.59;;;-7.05;100.00
42859;BME280;28505;56.970;40.998;2023-12-28T04:22:16;99109.22;;;-7.16;100.00
42859;BME280;28505;56.970;40.998;2023-12-28T04:27:39;99106.78;;;-7.24;100.00
42859;BME280;28505;56.970;40.998;2023-12-28T04:33:04;99110.00;;;-7.22;100.00
42859;BME280;28505;56.970;40.998;2023-12-28T04:38:27;99119.69;;;-7.29;100.00
42859;BME280;28505;56.970;40.998;2023-12-28T04:43:49;99120.47;;;-7.35;100.00
42859;BME280;28505;56.970;40.998;2023-12-28T04:49:12;99121.00;;;-7.46;100.00
42859;BME280;28505;56.970;40.998;2023-12-28T04:54:35;99133.28;;;-7.54;100.00
42859;BME280;28505;56.970;40.998;2023-12-28T04:59:57;99129.06;;;-7.55;100.00
42859;BME280;28505;56.970;40.998;2023-12-28T05:05:20;99136.72;;;-7.46;100.00
42859;BME280;28505;56.970;40.998;2023-12-28T05:10:43;99137.69;;;-7.61;100.00
42859;BME280;28505;56.970;40.998;2023-12-28T05:16:06;99134.56;;;-7.30;100.00
42859;BME280;28505;56.970;40.998;2023-12-28T05:21:28;99144.03;;;-7.35;100.00
42859;BME280;28505;56.970;40.998;2023-12-28T05:26:50;99155.16;;;-7.13;100.00
42859;BME280;28505;56.970;40.998;2023-12-28T05:32:12;99154.34;;;-7.07;100.00
42859;BME280;28505;56.970;40.998;2023-12-28T05:37:34;99164.66;;;-7.05;100.00
42859;BME280;28505;56.970;40.998;2023-12-28T05:42:57;99171.13;;;-6.95;100.00
42859;BME280;28505;56.970;40.998;2023-12-28T05:48:19;99173.31;;;-7.05;100.00
42859;BME280;28505;56.970;40.998;2023-12-28T05:53:42;99159.00;;;-7.16;100.00
42859;BME280;28505;56.970;40.998;2023-12-28T05:59:05;99174.91;;;-7.04;100.00
42859;BME280;28505;56.970;40.998;2023-12-28T06:04:28;99195.06;;;-7.11;100.00
42859;BME280;28505;56.970;40.998;2023-12-28T06:09:50;99195.53;;;-6.81;100.00
42859;BME280;28505;56.970;40.998;2023-12-28T06:15:12;99195.13;;;-6.78;100.00
42859;BME280;28505;56.970;40.998;2023-12-28T06:20:34;99207.44;;;-6.72;100.00
42859;BME280;28505;56.970;40.998;2023-12-28T06:25:57;99213.69;;;-6.73;100.00
42859;BME280;28505;56.970;40.998;2023-12-28T06:31:20;99229.41;;;-6.73;100.00
42859;BME280;28505;56.970;40.998;2023-12-28T06:36:42;99233.03;;;-6.61;100.00
42859;BME280;28505;56.970;40.998;2023-12-28T06:48:06;99238.13;;;-6.52;100.00
42859;BME280;28505;56.970;40.998;2023-12-28T06:53:28;99229.03;;;-6.56;100.00
42859;BME280;28505;56.970;40.998;2023-12-28T06:58:51;99238.34;;;-6.34;100.00
42859;BME280;28505;56.970;40.998;2023-12-28T07:04:13;99238.34;;;-6.34;100.00
42859;BME280;28505;56.970;40.998;2023-12-28T07:09:35;99238.53;;;-6.29;100.00
42859;BME280;28505;56.970;40.998;2023-12-28T07:14:57;99238.31;;;-6.54;100.00
42859;BME280;28505;56.970;40.998;2023-12-28T07:20:20;99250.44;;;-6.26;100.00
42859;BME280;28505;56.970;40.998;2023-12-28T07:25:43;99262.94;;;-6.35;100.00
42859;BME280;28505;56.970;40.998;2023-12-28T07:31:06;99264.56;;;-6.34;100.00
42859;BME280;28505;56.970;40.998;2023-12-28T07:36:28;99275.88;;;-6.27;100.00
42859;BME280;28505;56.970;40.998;2023-12-28T07:41:53;99282.16;;;-6.15;100.00
42859;BME280;28505;56.970;40.998;2023-12-28T07:47:16;99280.91;;;-6.12;100.00
42859;BME280;28505;56.970;40.998;2023-12-28T07:52:39;99273.03;;;-6.19;100.00
42859;BME280;28505;56.970;40.998;2023-12-28T07:58:01;99270.97;;;-5.63;100.00
42859;BME280;28505;56.970;40.998;2023-12-28T08:03:24;99285.97;;;-6.17;100.00
42859;BME280;28505;56.970;40.998;2023-12-28T08:08:48;99277.03;;;-5.90;100.00
42859;BME280;28505;56.970;40.998;2023-12-28T08:14:12;99270.22;;;-6.04;100.00
42859;BME280;28505;56.970;40.998;2023-12-28T08:19:35;99278.25;;;-5.92;100.00
42859;BME280;28505;56.970;40.998;2023-12-28T08:24:58;99283.34;;;-5.97;100.00
42859;BME280;28505;56.970;40.998;2023-12-28T08:30:20;99273.41;;;-5.75;100.00
42859;BME280;28505;56.970;40.998;2023-12-28T08:35:43;99281.09;;;-5.87;100.00
42859;BME280;28505;56.970;40.998;2023-12-28T08:41:05;99282.31;;;-5.96;100.00
42859;BME280;28505;56.970;40.998;2023-12-28T08:46:32;99268.19;;;-6.02;100.00
42859;BME280;28505;56.970;40.998;2023-12-28T08:51:54;99273.03;;;-6.05;100.00
42859;BME280;28505;56.970;40.998;2023-12-28T08:57:16;99305.94;;;-6.03;100.00
42859;BME280;28505;56.970;40.998;2023-12-28T09:02:55;99307.34;;;-6.27;100.00
42859;BME280;28505;56.970;40.998;2023-12-28T09:08:17;99301.72;;;-5.97;100.00
42859;BME280;28505;56.970;40.998;2023-12-28T09:13:40;99300.50;;;-6.01;100.00
42859;BME280;28505;56.970;40.998;2023-12-28T09:19:03;99300.91;;;-6.18;100.00
42859;BME280;28505;56.970;40.998;2023-12-28T09:24:26;99306.16;;;-5.98;100.00
42859;BME280;28505;56.970;40.998;2023-12-28T09:29:48;99303.31;;;-6.03;100.00
42859;BME280;28505;56.970;40.998;2023-12-28T09:35:10;99295.63;;;-5.91;100.00
42859;BME280;28505;56.970;40.998;2023-12-28T09:40:33;99305.09;;;-5.83;100.00
42859;BME280;28505;56.970;40.998;2023-12-28T09:45:55;99297.22;;;-5.77;100.00
42859;BME280;28505;56.970;40.998;2023-12-28T09:51:19;99298.66;;;-5.74;100.00
42859;BME280;28505;56.970;40.998;2023-12-28T09:56:42;99304.75;;;-6.00;100.00
42859;BME280;28505;56.970;40.998;2023-12-28T10:02:05;99304.34;;;-5.97;100.00
42859;BME280;28505;56.970;40.998;2023-12-28T10:07:28;99303.72;;;-5.99;100.00
42859;BME280;28505;56.970;40.998;2023-12-28T10:12:50;99312.63;;;-6.00;100.00
42859;BME280;28505;56.970;40.998;2023-12-28T10:18:13;99310.56;;;-5.92;100.00
42859;BME280;28505;56.970;40.998;2023-12-28T10:23:36;99318.25;;;-5.83;100.00
42859;BME280;28505;56.970;40.998;2023-12-28T10:28:59;99317.44;;;-5.84;100.00
42859;BME280;28505;56.970;40.998;2023-12-28T10:34:26;99330.75;;;-5.92;100.00
42859;BME280;28505;56.970;40.998;2023-12-28T10:39:53;99339.47;;;-6.05;100.00
42859;BME280;28505;56.970;40.998;2023-12-28T10:45:16;99335.63;;;-5.96;100.00
42859;BME280;28505;56.970;40.998;2023-12-28T10:50:46;99333.63;;;-5.94;100.00
42859;BME280;28505;56.970;40.998;2023-12-28T10:56:41;99328.56;;;-5.89;100.00
42859;BME280;28505;56.970;40.998;2023-12-28T11:02:06;99338.44;;;-5.84;100.00
42859;BME280;28505;56.970;40.998;2023-12-28T11:07:32;99329.13;;;-5.80;100.00
42859;BME280;28505;56.970;40.998;2023-12-28T11:12:56;99329.75;;;-5.91;100.00
42859;BME280;28505;56.970;40.998;2023-12-28T11:18:18;99329.53;;;-5.76;100.00
42859;BME280;28505;56.970;40.998;2023-12-28T11:23:43;99327.97;;;-5.97;100.00
42859;BME280;28505;56.970;40.998;2023-12-28T11:29:06;99340.03;;;-5.83;100.00
42859;BME280;28505;56.970;40.998;2023-12-28T11:34:31;99334.59;;;-5.75;100.00
42859;BME280;28505;56.970;40.998;2023-12-28T11:39:55;99336.00;;;-5.85;100.00
42859;BME280;28505;56.970;40.998;2023-12-28T11:45:21;99337.44;;;-5.96;100.00
42859;BME280;28505;56.970;40.998;2023-12-28T11:50:44;99341.69;;;-5.82;100.00
42859;BME280;28505;56.970;40.998;2023-12-28T11:56:07;99342.88;;;-5.84;100.00
42859;BME280;28505;56.970;40.998;2023-12-28T12:01:31;99343.31;;;-5.94;100.00
42859;BME280;28505;56.970;40.998;2023-12-28T12:06:53;99345.09;;;-5.81;100.00
42859;BME280;28505;56.970;40.998;2023-12-28T12:12:16;99353.78;;;-5.88;100.00
42859;BME280;28505;56.970;40.998;2023-12-28T12:17:38;99349.56;;;-5.82;100.00
42859;BME280;28505;56.970;40.998;2023-12-28T12:23:01;99352.97;;;-5.88;100.00
42859;BME280;28505;56.970;40.998;2023-12-28T12:28:27;99353.38;;;-5.91;100.00
42859;BME280;28505;56.970;40.998;2023-12-28T12:33:49;99349.72;;;-5.90;100.00
42859;BME280;28505;56.970;40.998;2023-12-28T12:39:13;99349.72;;;-5.90;100.00
42859;BME280;28505;56.970;40.998;2023-12-28T12:44:35;99358.25;;;-6.01;100.00
42859;BME280;28505;56.970;40.998;2023-12-28T12:49:58;99356.81;;;-5.97;100.00
42859;BME280;28505;56.970;40.998;2023-12-28T12:55:23;99345.72;;;-6.06;100.00
42859;BME280;28505;56.970;40.998;2023-12-28T13:00:47;99338.44;;;-6.24;100.00
42859;BME280;28505;56.970;40.998;2023-12-28T13:06:09;99342.38;;;-6.54;100.00
42859;BME280;28505;56.970;40.998;2023-12-28T13:11:33;99351.34;;;-6.77;100.00
42859;BME280;28505;56.970;40.998;2023-12-28T13:16:55;99339.72;;;-6.61;100.00
42859;BME280;28505;56.970;40.998;2023-12-28T13:22:18;99346.31;;;-6.85;100.00
42859;BME280;28505;56.970;40.998;2023-12-28T13:27:40;99351.97;;;-6.81;100.00
42859;BME280;28505;56.970;40.998;2023-12-28T13:33:04;99360.09;;;-6.70;100.00
42859;BME280;28505;56.970;40.998;2023-12-28T13:38:29;99349.56;;;-6.76;100.00
42859;BME280;28505;56.970;40.998;2023-12-28T13:43:52;99357.47;;;-6.70;100.00
42859;BME280;28505;56.970;40.998;2023-12-28T13:49:22;99365.63;;;-6.93;100.00
42859;BME280;28505;56.970;40.998;2023-12-28T13:54:47;99354.56;;;-6.88;100.00
42859;BME280;28505;56.970;40.998;2023-12-28T14:00:10;99357.84;;;-6.73;100.00
42859;BME280;28505;56.970;40.998;2023-12-28T14:05:35;99353.34;;;-6.86;100.00
42859;BME280;28505;56.970;40.998;2023-12-28T14:10:58;99359.72;;;-6.60;100.00
42859;BME280;28505;56.970;40.998;2023-12-28T14:16:20;99351.22;;;-6.62;100.00
42859;BME280;28505;56.970;40.998;2023-12-28T14:21:42;99354.84;;;-6.70;100.00
42859;BME280;28505;56.970;40.998;2023-12-28T14:27:05;99345.19;;;-6.63;100.00
42859;BME280;28505;56.970;40.998;2023-12-28T14:32:27;99349.41;;;-6.62;100.00
42859;BME280;28505;56.970;40.998;2023-12-28T14:37:49;99350.44;;;-6.56;100.00
42859;BME280;28505;56.970;40.998;2023-12-28T14:43:14;99348.25;;;-6.52;100.00
42859;BME280;28505;56.970;40.998;2023-12-28T14:48:38;99348.47;;;-6.47;100.00
42859;BME280;28505;56.970;40.998;2023-12-28T14:54:00;99345.63;;;-6.52;100.00
42859;BME280;28505;56.970;40.998;2023-12-28T14:59:23;99354.94;;;-6.37;100.00
42859;BME280;28505;56.970;40.998;2023-12-28T15:04:45;99352.28;;;-6.50;100.00
42859;BME280;28505;56.970;40.998;2023-12-28T15:10:09;99355.31;;;-6.46;100.00
42859;BME280;28505;56.970;40.998;2023-12-28T15:15:32;99361.22;;;-6.31;100.00
42859;BME280;28505;56.970;40.998;2023-12-28T15:20:55;99357.75;;;-6.38;100.00
42859;BME280;28505;56.970;40.998;2023-12-28T15:26:17;99359.00;;;-6.27;100.00
42859;BME280;28505;56.970;40.998;2023-12-28T15:31:39;99359.41;;;-6.24;100.00
42859;BME280;28505;56.970;40.998;2023-12-28T15:37:01;99365.88;;;-6.20;100.00
42859;BME280;28505;56.970;40.998;2023-12-28T15:48:26;99350.16;;;-6.06;100.00
42859;BME280;28505;56.970;40.998;2023-12-28T15:53:48;99334.41;;;-6.06;100.00
42859;BME280;28505;56.970;40.998;2023-12-28T15:59:10;99333.59;;;-6.00;100.00
42859;BME280;28505;56.970;40.998;2023-12-28T16:04:32;99329.38;;;-6.01;100.00
42859;BME280;28505;56.970;40.998;2023-12-28T16:09:54;99323.31;;;-5.95;100.00
42859;BME280;28505;56.970;40.998;2023-12-28T16:15:17;99316.63;;;-5.91;100.00
42859;BME280;28505;56.970;40.998;2023-12-28T16:20:40;99310.59;;;-5.98;100.00
42859;BME280;28505;56.970;40.998;2023-12-28T16:26:02;99319.84;;;-5.89;100.00
42859;BME280;28505;56.970;40.998;2023-12-28T16:31:25;99307.34;;;-5.87;100.00
42859;BME280;28505;56.970;40.998;2023-12-28T16:36:47;99313.38;;;-5.86;100.00
42859;BME280;28505;56.970;40.998;2023-12-28T16:42:09;99312.81;;;-5.82;100.00
42859;BME280;28505;56.970;40.998;2023-12-28T16:47:32;99307.34;;;-5.80;100.00
42859;BME280;28505;56.970;40.998;2023-12-28T16:52:54;99310.56;;;-5.85;100.00
42859;BME280;28505;56.970;40.998;2023-12-28T16:58:16;99311.97;;;-5.82;100.00
42859;BME280;28505;56.970;40.998;2023-12-28T17:03:39;99304.75;;;-5.94;100.00
42859;BME280;28505;56.970;40.998;2023-12-28T17:09:04;99310.97;;;-5.88;100.00
42859;BME280;28505;56.970;40.998;2023-12-28T17:14:34;99306.53;;;-5.88;100.00
42859;BME280;28505;56.970;40.998;2023-12-28T17:19:57;99313.00;;;-5.90;100.00
42859;BME280;28505;56.970;40.998;2023-12-28T17:25:32;99309.75;;;-5.85;100.00
42859;BME280;28505;56.970;40.998;2023-12-28T17:31:01;99310.41;;;-5.97;100.00
42859;BME280;28505;56.970;40.998;2023-12-28T17:36:25;99306.94;;;-5.84;100.00
42859;BME280;28505;56.970;40.998;2023-12-28T17:41:54;99298.25;;;-5.91;100.00
42859;BME280;28505;56.970;40.998;2023-12-28T17:47:22;99298.44;;;-5.86;100.00
42859;BME280;28505;56.970;40.998;2023-12-28T17:52:46;99295.44;;;-5.96;100.00
42859;BME280;28505;56.970;40.998;2023-12-28T17:58:10;99287.78;;;-6.04;100.00
42859;BME280;28505;56.970;40.998;2023-12-28T18:03:32;99288.38;;;-5.96;100.00
42859;BME280;28505;56.970;40.998;2023-12-28T18:08:54;99297.84;;;-5.88;100.00
42859;BME280;28505;56.970;40.998;2023-12-28T18:14:17;99297.06;;;-5.82;100.00
42859;BME280;28505;56.970;40.998;2023-12-28T18:19:43;99285.13;;;-5.91;100.00
42859;BME280;28505;56.970;40.998;2023-12-28T18:25:07;99289.38;;;-5.90;100.00
42859;BME280;28505;56.970;40.998;2023-12-28T18:30:30;99280.31;;;-5.94;100.00
42859;BME280;28505;56.970;40.998;2023-12-28T18:35:55;99276.69;;;-5.93;100.00
42859;BME280;28505;56.970;40.998;2023-12-28T18:41:17;99264.19;;;-5.98;100.00
42859;BME280;28505;56.970;40.998;2023-12-28T18:46:39;99273.00;;;-5.92;100.00
42859;BME280;28505;56.970;40.998;2023-12-28T18:52:02;99273.88;;;-5.98;100.00
42859;BME280;28505;56.970;40.998;2023-12-28T18:57:26;99277.09;;;-6.03;100.00
42859;BME280;28505;56.970;40.998;2023-12-28T19:02:48;99268.19;;;-6.02;100.00
42859;BME280;28505;56.970;40.998;2023-12-28T19:08:10;99276.50;;;-6.05;100.00
42859;BME280;28505;56.970;40.998;2023-12-28T19:13:32;99271.84;;;-6.03;100.00
42859;BME280;28505;56.970;40.998;2023-12-28T19:18:54;99266.00;;;-5.98;100.00
42859;BME280;28505;56.970;40.998;2023-12-28T19:24:17;99259.53;;;-6.09;100.00
42859;BME280;28505;56.970;40.998;2023-12-28T19:29:39;99249.81;;;-6.08;100.00
42859;BME280;28505;56.970;40.998;2023-12-28T19:35:01;99233.09;;;-6.21;100.00
42859;BME280;28505;56.970;40.998;2023-12-28T19:40:23;99241.94;;;-6.35;100.00
42859;BME280;28505;56.970;40.998;2023-12-28T19:45:46;99227.22;;;-6.49;100.00
42859;BME280;28505;56.970;40.998;2023-12-28T19:51:09;99212.53;;;-6.44;100.00
42859;BME280;28505;56.970;40.998;2023-12-28T19:56:32;99207.84;;;-6.35;100.00
42859;BME280;28505;56.970;40.998;2023-12-28T20:01:55;99216.97;;;-6.24;100.00
42859;BME280;28505;56.970;40.998;2023-12-28T20:07:19;99215.13;;;-6.30;100.00
42859;BME280;28505;56.970;40.998;2023-12-28T20:12:43;99212.13;;;-6.34;100.00
42859;BME280;28505;56.970;40.998;2023-12-28T20:18:05;99206.25;;;-6.29;100.00
42859;BME280;28505;56.970;40.998;2023-12-28T20:23:30;99201.63;;;-6.34;100.00
42859;BME280;28505;56.970;40.998;2023-12-28T20:28:52;99197.19;;;-6.33;100.00
42859;BME280;28505;56.970;40.998;2023-12-28T20:34:18;99190.50;;;-6.29;100.00
42859;BME280;28505;56.970;40.998;2023-12-28T20:39:40;99181.63;;;-6.28;100.00
42859;BME280;28505;56.970;40.998;2023-12-28T20:45:02;99184.66;;;-6.25;100.00
42859;BME280;28505;56.970;40.998;2023-12-28T20:50:25;99177.41;;;-6.23;100.00
42859;BME280;28505;56.970;40.998;2023-12-28T20:55:50;99157.84;;;-6.40;100.00
42859;BME280;28505;56.970;40.998;2023-12-28T21:01:14;99167.72;;;-6.22;100.00
42859;BME280;28505;56.970;40.998;2023-12-28T21:06:36;99171.75;;;-6.26;100.00
42859;BME280;28505;56.970;40.998;2023-12-28T21:12:01;99156.41;;;-6.23;100.00
42859;BME280;28505;56.970;40.998;2023-12-28T21:17:26;99162.88;;;-6.32;100.00
42859;BME280;28505;56.970;40.998;2023-12-28T21:22:48;99152.19;;;-6.37;100.00
42859;BME280;28505;56.970;40.998;2023-12-28T21:28:11;99156.41;;;-6.29;100.00
42859;BME280;28505;56.970;40.998;2023-12-28T21:33:33;99158.81;;;-6.28;100.00
42859;BME280;28505;56.970;40.998;2023-12-28T21:38:56;99145.91;;;-6.23;100.00
42859;BME280;28505;56.970;40.998;2023-12-28T21:44:18;99143.91;;;-6.27;100.00
42859;BME280;28505;56.970;40.998;2023-12-28T21:49:41;99147.13;;;-6.32;100.00
42859;BME280;28505;56.970;40.998;2023-12-28T21:55:05;99135.22;;;-6.28;100.00
42859;BME280;28505;56.970;40.998;2023-12-28T22:00:28;99135.84;;;-6.26;100.00
42859;BME280;28505;56.970;40.998;2023-12-28T22:05:50;99123.75;;;-6.27;100.00
42859;BME280;28505;56.970;40.998;2023-12-28T22:11:12;99121.69;;;-6.25;100.00
42859;BME280;28505;56.970;40.998;2023-12-28T22:16:35;99123.31;;;-6.17;100.00
42859;BME280;28505;56.970;40.998;2023-12-28T22:21:58;99124.13;;;-6.23;100.00
42859;BME280;28505;56.970;40.998;2023-12-28T22:27:20;99110.38;;;-6.12;100.00
42859;BME280;28505;56.970;40.998;2023-12-28T22:32:46;99111.81;;;-6.16;100.00
42859;BME280;28505;56.970;40.998;2023-12-28T22:38:08;99101.28;;;-6.09;100.00
42859;BME280;28505;56.970;40.998;2023-12-28T22:43:30;99085.56;;;-6.16;100.00
42859;BME280;28505;56.970;40.998;2023-12-28T22:48:53;99083.75;;;-6.16;100.00
42859;BME280;28505;56.970;40.998;2023-12-28T22:54:15;99079.69;;;-6.12;100.00
42859;BME280;28505;56.970;40.998;2023-12-28T22:59:37;99082.75;;;-6.08;100.00
42859;BME280;28505;56.970;40.998;2023-12-28T23:05:02;99076.66;;;-6.08;100.00
42859;BME280;28505;56.970;40.998;2023-12-28T23:10:24;99074.88;;;-6.15;100.00
42859;BME280;28505;56.970;40.998;2023-12-28T23:15:47;99083.72;;;-6.09;100.00
42859;BME280;28505;56.970;40.998;2023-12-28T23:21:11;99080.53;;;-6.18;100.00
42859;BME280;28505;56.970;40.998;2023-12-28T23:26:32;99066.56;;;-6.12;100.00
42859;BME280;28505;56.970;40.998;2023-12-28T23:31:55;99079.88;;;-6.00;100.00
42859;BME280;28505;56.970;40.998;2023-12-28T23:37:17;99059.91;;;-6.07;100.00
42859;BME280;28505;56.970;40.998;2023-12-28T23:42:42;99052.81;;;-6.00;100.00
42859;BME280;28505;56.970;40.998;2023-12-28T23:48:04;99065.16;;;-6.07;100.00
42859;BME280;28505;56.970;40.998;2023-12-28T23:53:27;99053.22;;;-5.97;100.00
42859;BME280;28505;56.970;40.998;2023-12-28T23:58:49;99044.34;;;-6.02;100.00
